sensor_id;sensor_type;location;lat;lon;timestamp;temperature;humidity
20856;DHT22;63058;49.424;8.420;2023-01-25T00:02:01;6.20;99.90
20856;DHT22;63058;49.424;8.420;2023-01-25T00:04:27;6.10;99.90
20856;DHT22;63058;49.424;8.420;2023-01-25T00:06:53;6.00;99.90
20856;DHT22;63058;49.424;8.420;2023-01-25T00:09:19;6.00;99.90
20856;DHT22;63058;49.424;8.420;2023-01-25T00:11:45;6.00;99.90
20856;DHT22;63058;49.424;8.420;2023-01-25T00:14:12;6.00;99.90
20856;DHT22;63058;49.424;8.420;2023-01-25T00:16:38;6.00;99.90
20856;DHT22;63058;49.424;8.420;2023-01-25T00:19:05;6.00;99.90
20856;DHT22;63058;49.424;8.420;2023-01-25T00:21:31;6.00;99.90
20856;DHT22;63058;49.424;8.420;2023-01-25T00:23:56;6.00;99.90
20856;DHT22;63058;49.424;8.420;2023-01-25T00:26:22;6.00;99.90
20856;DHT22;63058;49.424;8.420;2023-01-25T00:28:52;5.90;99.90
20856;DHT22;63058;49.424;8.420;2023-01-25T00:34:45;6.00;99.90
20856;DHT22;63058;49.424;8.420;2023-01-25T00:39:46;5.90;99.90
20856;DHT22;63058;49.424;8.420;2023-01-25T00:42:15;5.90;99.90
20856;DHT22;63058;49.424;8.420;2023-01-25T00:44:41;5.90;99.90
20856;DHT22;63058;49.424;8.420;2023-01-25T00:47:09;5.90;99.90
20856;DHT22;63058;49.424;8.420;2023-01-25T00:49:36;5.90;99.90
20856;DHT22;63058;49.424;8.420;2023-01-25T00:52:02;5.90;99.90
20856;DHT22;63058;49.424;8.420;2023-01-25T00:54:28;5.90;99.90
20856;DHT22;63058;49.424;8.420;2023-01-25T00:56:54;6.00;99.90
20856;DHT22;63058;49.424;8.420;2023-01-25T00:59:22;6.00;99.90
20856;DHT22;63058;49.424;8.420;2023-01-25T01:01:48;5.90;99.90
20856;DHT22;63058;49.424;8.420;2023-01-25T01:04:14;5.90;99.90
20856;DHT22;63058;49.424;8.420;2023-01-25T01:06:40;5.90;99.90
20856;DHT22;63058;49.424;8.420;2023-01-25T01:09:10;5.90;99.90
20856;DHT22;63058;49.424;8.420;2023-01-25T01:11:45;5.90;99.90
20856;DHT22;63058;49.424;8.420;2023-01-25T01:14:11;5.90;99.90
20856;DHT22;63058;49.424;8.420;2023-01-25T01:16:37;5.90;99.90
20856;DHT22;63058;49.424;8.420;2023-01-25T01:19:04;5.90;99.90
20856;DHT22;63058;49.424;8.420;2023-01-25T01:21:30;5.90;99.90
20856;DHT22;63058;49.424;8.420;2023-01-25T01:23:56;5.90;99.90
20856;DHT22;63058;49.424;8.420;2023-01-25T01:26:22;6.00;99.90
20856;DHT22;63058;49.424;8.420;2023-01-25T01:28:47;5.90;99.90
20856;DHT22;63058;49.424;8.420;2023-01-25T01:31:22;5.90;99.90
20856;DHT22;63058;49.424;8.420;2023-01-25T01:33:49;5.90;99.90
20856;DHT22;63058;49.424;8.420;2023-01-25T01:36:17;5.90;99.90
20856;DHT22;63058;49.424;8.420;2023-01-25T01:38:43;6.00;99.90
20856;DHT22;63058;49.424;8.420;2023-01-25T01:41:10;6.00;99.90
20856;DHT22;63058;49.424;8.420;2023-01-25T01:43:36;5.90;99.90
20856;DHT22;63058;49.424;8.420;2023-01-25T01:48:47;5.90;99.90
20856;DHT22;63058;49.424;8.420;2023-01-25T01:51:41;5.90;99.90
20856;DHT22;63058;49.424;8.420;2023-01-25T01:54:15;5.90;99.90
20856;DHT22;63058;49.424;8.420;2023-01-25T01:57:06;6.00;99.90
20856;DHT22;63058;49.424;8.420;2023-01-25T01:59:38;6.00;99.90
20856;DHT22;63058;49.424;8.420;2023-01-25T02:02:05;6.00;99.90
20856;DHT22;63058;49.424;8.420;2023-01-25T02:04:31;6.00;99.90
20856;DHT22;63058;49.424;8.420;2023-01-25T02:09:28;6.00;99.90
20856;DHT22;63058;49.424;8.420;2023-01-25T02:11:56;6.00;99.90
20856;DHT22;63058;49.424;8.420;2023-01-25T02:14:22;6.00;99.90
20856;DHT22;63058;49.424;8.420;2023-01-25T02:16:48;6.00;99.90
20856;DHT22;63058;49.424;8.420;2023-01-25T02:19:34;6.00;99.90
20856;DHT22;63058;49.424;8.420;2023-01-25T02:22:03;5.90;99.90
20856;DHT22;63058;49.424;8.420;2023-01-25T02:24:36;5.90;99.90
20856;DHT22;63058;49.424;8.420;2023-01-25T02:27:04;5.90;99.90
20856;DHT22;63058;49.424;8.420;2023-01-25T02:29:30;6.00;99.90
20856;DHT22;63058;49.424;8.420;2023-01-25T02:32:02;6.00;99.90
20856;DHT22;63058;49.424;8.420;2023-01-25T02:34:28;6.00;99.90
20856;DHT22;63058;49.424;8.420;2023-01-25T02:36:54;6.00;99.90
20856;DHT22;63058;49.424;8.420;2023-01-25T02:39:19;5.90;99.90
20856;DHT22;63058;49.424;8.420;2023-01-25T02:41:48;5.90;99.90
20856;DHT22;63058;49.424;8.420;2023-01-25T02:44:20;5.90;99.90
20856;DHT22;63058;49.424;8.420;2023-01-25T02:46:46;5.90;99.90
20856;DHT22;63058;49.424;8.420;2023-01-25T02:49:13;5.90;99.90
20856;DHT22;63058;49.424;8.420;2023-01-25T02:51:42;5.90;99.90
20856;DHT22;63058;49.424;8.420;2023-01-25T02:54:10;5.90;99.90
20856;DHT22;63058;49.424;8.420;2023-01-25T02:56:37;5.90;99.90
20856;DHT22;63058;49.424;8.420;2023-01-25T02:59:03;5.90;99.90
20856;DHT22;63058;49.424;8.420;2023-01-25T03:01:38;5.90;99.90
20856;DHT22;63058;49.424;8.420;2023-01-25T03:04:04;5.90;99.90
20856;DHT22;63058;49.424;8.420;2023-01-25T03:06:31;6.00;99.90
20856;DHT22;63058;49.424;8.420;2023-01-25T03:08:56;5.90;99.90
20856;DHT22;63058;49.424;8.420;2023-01-25T03:11:22;5.90;99.90
20856;DHT22;63058;49.424;8.420;2023-01-25T03:13:48;5.90;99.90
20856;DHT22;63058;49.424;8.420;2023-01-25T03:16:14;5.90;99.90
20856;DHT22;63058;49.424;8.420;2023-01-25T03:18:40;6.00;99.90
20856;DHT22;63058;49.424;8.420;2023-01-25T03:21:14;6.00;99.90
20856;DHT22;63058;49.424;8.420;2023-01-25T03:23:40;5.90;99.90
20856;DHT22;63058;49.424;8.420;2023-01-25T03:26:12;5.90;99.90
20856;DHT22;63058;49.424;8.420;2023-01-25T03:28:39;6.00;99.90
20856;DHT22;63058;49.424;8.420;2023-01-25T03:31:06;6.00;99.90
20856;DHT22;63058;49.424;8.420;2023-01-25T03:33:32;5.90;99.90
20856;DHT22;63058;49.424;8.420;2023-01-25T03:35:58;6.00;99.90
20856;DHT22;63058;49.424;8.420;2023-01-25T03:38:23;6.00;99.90
20856;DHT22;63058;49.424;8.420;2023-01-25T03:40:49;6.00;99.90
20856;DHT22;63058;49.424;8.420;2023-01-25T03:43:15;5.90;99.90
20856;DHT22;63058;49.424;8.420;2023-01-25T03:45:41;6.00;99.90
20856;DHT22;63058;49.424;8.420;2023-01-25T03:48:07;5.90;99.90
20856;DHT22;63058;49.424;8.420;2023-01-25T03:50:33;6.00;99.90
20856;DHT22;63058;49.424;8.420;2023-01-25T03:52:58;6.00;99.90
20856;DHT22;63058;49.424;8.420;2023-01-25T03:55:30;6.00;99.90
20856;DHT22;63058;49.424;8.420;2023-01-25T03:57:56;5.90;99.90
20856;DHT22;63058;49.424;8.420;2023-01-25T04:00:22;6.00;99.90
20856;DHT22;63058;49.424;8.420;2023-01-25T04:02:47;5.90;99.90
20856;DHT22;63058;49.424;8.420;2023-01-25T04:05:13;5.90;99.90
20856;DHT22;63058;49.424;8.420;2023-01-25T04:07:39;5.90;99.90
20856;DHT22;63058;49.424;8.420;2023-01-25T04:10:05;6.00;99.90
20856;DHT22;63058;49.424;8.420;2023-01-25T04:12:31;6.00;99.90
20856;DHT22;63058;49.424;8.420;2023-01-25T04:14:57;6.00;99.90
20856;DHT22;63058;49.424;8.420;2023-01-25T04:17:22;6.00;99.90
20856;DHT22;63058;49.424;8.420;2023-01-25T04:19:48;6.10;99.90
20856;DHT22;63058;49.424;8.420;2023-01-25T04:22:14;6.00;99.90
20856;DHT22;63058;49.424;8.420;2023-01-25T04:24:41;6.00;99.90
20856;DHT22;63058;49.424;8.420;2023-01-25T04:27:06;6.00;99.90
20856;DHT22;63058;49.424;8.420;2023-01-25T04:29:33;6.00;99.90
20856;DHT22;63058;49.424;8.420;2023-01-25T04:32:00;6.10;99.90
20856;DHT22;63058;49.424;8.420;2023-01-25T04:34:25;6.00;99.90
20856;DHT22;63058;49.424;8.420;2023-01-25T04:36:51;6.00;99.90
20856;DHT22;63058;49.424;8.420;2023-01-25T04:39:18;6.00;99.90
20856;DHT22;63058;49.424;8.420;2023-01-25T04:41:44;6.00;99.90
20856;DHT22;63058;49.424;8.420;2023-01-25T04:44:09;6.00;99.90
20856;DHT22;63058;49.424;8.420;2023-01-25T04:46:35;6.00;99.90
20856;DHT22;63058;49.424;8.420;2023-01-25T04:49:01;6.00;99.90
20856;DHT22;63058;49.424;8.420;2023-01-25T04:51:27;6.00;99.90
20856;DHT22;63058;49.424;8.420;2023-01-25T04:53:52;6.00;99.90
20856;DHT22;63058;49.424;8.420;2023-01-25T04:56:18;6.10;99.90
20856;DHT22;63058;49.424;8.420;2023-01-25T04:58:44;6.00;99.90
20856;DHT22;63058;49.424;8.420;2023-01-25T05:01:09;6.10;99.90
20856;DHT22;63058;49.424;8.420;2023-01-25T05:03:35;6.00;99.90
20856;DHT22;63058;49.424;8.420;2023-01-25T05:06:00;6.00;99.90
20856;DHT22;63058;49.424;8.420;2023-01-25T05:08:26;6.00;99.90
20856;DHT22;63058;49.424;8.420;2023-01-25T05:10:52;5.90;99.90
20856;DHT22;63058;49.424;8.420;2023-01-25T05:13:17;5.90;99.90
20856;DHT22;63058;49.424;8.420;2023-01-25T05:15:43;6.00;99.90
20856;DHT22;63058;49.424;8.420;2023-01-25T05:18:09;5.90;99.90
20856;DHT22;63058;49.424;8.420;2023-01-25T05:20:34;5.90;99.90
20856;DHT22;63058;49.424;8.420;2023-01-25T05:23:00;5.90;99.90
20856;DHT22;63058;49.424;8.420;2023-01-25T05:25:26;6.00;99.90
20856;DHT22;63058;49.424;8.420;2023-01-25T05:28:10;5.90;99.90
20856;DHT22;63058;49.424;8.420;2023-01-25T05:30:36;5.90;99.90
20856;DHT22;63058;49.424;8.420;2023-01-25T05:33:01;5.90;99.90
20856;DHT22;63058;49.424;8.420;2023-01-25T05:35:27;5.90;99.90
20856;DHT22;63058;49.424;8.420;2023-01-25T05:37:57;6.00;99.90
20856;DHT22;63058;49.424;8.420;2023-01-25T05:40:23;5.90;99.90
20856;DHT22;63058;49.424;8.420;2023-01-25T05:42:56;5.90;99.90
20856;DHT22;63058;49.424;8.420;2023-01-25T05:45:23;5.90;99.90
20856;DHT22;63058;49.424;8.420;2023-01-25T05:47:56;6.00;99.90
20856;DHT22;63058;49.424;8.420;2023-01-25T05:50:22;5.80;99.90
20856;DHT22;63058;49.424;8.420;2023-01-25T05:52:49;5.90;99.90
20856;DHT22;63058;49.424;8.420;2023-01-25T05:55:14;5.90;99.90
20856;DHT22;63058;49.424;8.420;2023-01-25T05:57:40;5.80;99.90
20856;DHT22;63058;49.424;8.420;2023-01-25T06:00:09;5.90;99.90
20856;DHT22;63058;49.424;8.420;2023-01-25T06:02:35;5.80;99.90
20856;DHT22;63058;49.424;8.420;2023-01-25T06:05:02;6.00;99.90
20856;DHT22;63058;49.424;8.420;2023-01-25T06:07:28;5.90;99.90
20856;DHT22;63058;49.424;8.420;2023-01-25T06:09:53;5.90;99.90
20856;DHT22;63058;49.424;8.420;2023-01-25T06:12:20;5.90;99.90
20856;DHT22;63058;49.424;8.420;2023-01-25T06:14:46;5.90;99.90
20856;DHT22;63058;49.424;8.420;2023-01-25T06:17:12;5.90;99.90
20856;DHT22;63058;49.424;8.420;2023-01-25T06:19:38;5.90;99.90
20856;DHT22;63058;49.424;8.420;2023-01-25T06:22:04;5.90;99.90
20856;DHT22;63058;49.424;8.420;2023-01-25T06:24:32;5.90;99.90
20856;DHT22;63058;49.424;8.420;2023-01-25T06:26:58;5.80;99.90
20856;DHT22;63058;49.424;8.420;2023-01-25T06:29:23;5.80;99.90
20856;DHT22;63058;49.424;8.420;2023-01-25T06:31:49;5.90;99.90
20856;DHT22;63058;49.424;8.420;2023-01-25T06:34:14;5.90;99.90
20856;DHT22;63058;49.424;8.420;2023-01-25T06:36:41;5.90;99.90
20856;DHT22;63058;49.424;8.420;2023-01-25T06:39:07;5.90;99.90
20856;DHT22;63058;49.424;8.420;2023-01-25T06:41:32;5.90;99.90
20856;DHT22;63058;49.424;8.420;2023-01-25T06:43:58;5.90;99.90
20856;DHT22;63058;49.424;8.420;2023-01-25T06:46:24;5.80;99.90
20856;DHT22;63058;49.424;8.420;2023-01-25T06:48:49;5.80;99.90
20856;DHT22;63058;49.424;8.420;2023-01-25T06:51:15;5.80;99.90
20856;DHT22;63058;49.424;8.420;2023-01-25T06:53:43;5.80;99.90
20856;DHT22;63058;49.424;8.420;2023-01-25T06:56:18;5.80;99.90
20856;DHT22;63058;49.424;8.420;2023-01-25T06:58:46;5.80;99.90
20856;DHT22;63058;49.424;8.420;2023-01-25T07:01:17;5.80;99.90
20856;DHT22;63058;49.424;8.420;2023-01-25T07:03:48;5.80;99.90
20856;DHT22;63058;49.424;8.420;2023-01-25T07:06:14;5.80;99.90
20856;DHT22;63058;49.424;8.420;2023-01-25T07:08:39;5.80;99.90
20856;DHT22;63058;49.424;8.420;2023-01-25T07:11:08;5.80;99.90
20856;DHT22;63058;49.424;8.420;2023-01-25T07:13:36;5.80;99.90
20856;DHT22;63058;49.424;8.420;2023-01-25T07:16:04;5.80;99.90
20856;DHT22;63058;49.424;8.420;2023-01-25T07:18:31;5.80;99.90
20856;DHT22;63058;49.424;8.420;2023-01-25T07:21:04;5.80;99.90
20856;DHT22;63058;49.424;8.420;2023-01-25T07:23:31;5.80;99.90
20856;DHT22;63058;49.424;8.420;2023-01-25T07:25:58;5.80;99.90
20856;DHT22;63058;49.424;8.420;2023-01-25T07:28:23;5.80;99.90
20856;DHT22;63058;49.424;8.420;2023-01-25T07:30:49;5.80;99.90
20856;DHT22;63058;49.424;8.420;2023-01-25T07:33:15;5.80;99.90
20856;DHT22;63058;49.424;8.420;2023-01-25T07:35:41;5.80;99.90
20856;DHT22;63058;49.424;8.420;2023-01-25T07:38:07;5.80;99.90
20856;DHT22;63058;49.424;8.420;2023-01-25T07:40:33;5.80;99.90
20856;DHT22;63058;49.424;8.420;2023-01-25T07:42:58;5.80;99.90
20856;DHT22;63058;49.424;8.420;2023-01-25T07:45:24;5.80;99.90
20856;DHT22;63058;49.424;8.420;2023-01-25T07:47:55;5.70;99.90
20856;DHT22;63058;49.424;8.420;2023-01-25T07:50:21;5.70;99.90
20856;DHT22;63058;49.424;8.420;2023-01-25T07:52:47;5.80;99.90
20856;DHT22;63058;49.424;8.420;2023-01-25T07:55:12;5.80;99.90
20856;DHT22;63058;49.424;8.420;2023-01-25T07:57:38;5.70;99.90
20856;DHT22;63058;49.424;8.420;2023-01-25T08:00:04;5.80;99.90
20856;DHT22;63058;49.424;8.420;2023-01-25T08:02:34;5.70;99.90
20856;DHT22;63058;49.424;8.420;2023-01-25T08:05:00;5.80;99.90
20856;DHT22;63058;49.424;8.420;2023-01-25T08:07:28;5.80;99.90
20856;DHT22;63058;49.424;8.420;2023-01-25T08:09:53;5.70;99.90
20856;DHT22;63058;49.424;8.420;2023-01-25T08:12:19;5.70;99.90
20856;DHT22;63058;49.424;8.420;2023-01-25T08:14:45;5.80;99.90
20856;DHT22;63058;49.424;8.420;2023-01-25T08:17:10;5.80;99.90
20856;DHT22;63058;49.424;8.420;2023-01-25T08:19:36;5.80;99.90
20856;DHT22;63058;49.424;8.420;2023-01-25T08:22:02;5.80;99.90
20856;DHT22;63058;49.424;8.420;2023-01-25T08:24:28;5.90;99.90
20856;DHT22;63058;49.424;8.420;2023-01-25T08:26:53;5.80;99.90
20856;DHT22;63058;49.424;8.420;2023-01-25T08:29:19;5.80;99.90
20856;DHT22;63058;49.424;8.420;2023-01-25T08:31:44;5.80;99.90
20856;DHT22;63058;49.424;8.420;2023-01-25T08:34:10;5.80;99.90
20856;DHT22;63058;49.424;8.420;2023-01-25T08:36:36;5.80;99.90
20856;DHT22;63058;49.424;8.420;2023-01-25T08:39:05;5.80;99.90
20856;DHT22;63058;49.424;8.420;2023-01-25T08:41:32;5.80;99.90
20856;DHT22;63058;49.424;8.420;2023-01-25T08:43:58;5.90;99.90
20856;DHT22;63058;49.424;8.420;2023-01-25T08:46:26;5.80;99.90
20856;DHT22;63058;49.424;8.420;2023-01-25T08:48:55;5.80;99.90
20856;DHT22;63058;49.424;8.420;2023-01-25T08:51:22;5.80;99.90
20856;DHT22;63058;49.424;8.420;2023-01-25T08:53:48;5.90;99.90
20856;DHT22;63058;49.424;8.420;2023-01-25T08:56:15;6.00;99.90
20856;DHT22;63058;49.424;8.420;2023-01-25T08:58:45;5.90;99.90
20856;DHT22;63058;49.424;8.420;2023-01-25T09:01:13;5.90;99.90
20856;DHT22;63058;49.424;8.420;2023-01-25T09:03:45;5.90;99.90
20856;DHT22;63058;49.424;8.420;2023-01-25T09:06:12;6.00;99.90
20856;DHT22;63058;49.424;8.420;2023-01-25T09:08:38;5.90;99.90
20856;DHT22;63058;49.424;8.420;2023-01-25T09:11:06;5.90;99.90
20856;DHT22;63058;49.424;8.420;2023-01-25T09:13:32;6.00;99.90
20856;DHT22;63058;49.424;8.420;2023-01-25T09:16:03;6.00;99.90
20856;DHT22;63058;49.424;8.420;2023-01-25T09:18:29;6.00;99.90
20856;DHT22;63058;49.424;8.420;2023-01-25T09:20:55;6.00;99.90
20856;DHT22;63058;49.424;8.420;2023-01-25T09:23:21;6.10;99.90
20856;DHT22;63058;49.424;8.420;2023-01-25T09:25:58;6.10;99.90
20856;DHT22;63058;49.424;8.420;2023-01-25T09:28:24;6.10;99.90
20856;DHT22;63058;49.424;8.420;2023-01-25T09:30:57;6.10;99.90
20856;DHT22;63058;49.424;8.420;2023-01-25T09:33:28;6.10;99.90
20856;DHT22;63058;49.424;8.420;2023-01-25T09:35:55;6.10;99.90
20856;DHT22;63058;49.424;8.420;2023-01-25T09:38:21;6.10;99.90
20856;DHT22;63058;49.424;8.420;2023-01-25T09:46:43;6.10;99.90
20856;DHT22;63058;49.424;8.420;2023-01-25T09:54:19;6.00;99.90
20856;DHT22;63058;49.424;8.420;2023-01-25T09:56:47;6.00;99.90
20856;DHT22;63058;49.424;8.420;2023-01-25T09:59:19;6.00;99.90
20856;DHT22;63058;49.424;8.420;2023-01-25T10:04:52;6.00;99.90
20856;DHT22;63058;49.424;8.420;2023-01-25T10:07:26;6.00;99.90
20856;DHT22;63058;49.424;8.420;2023-01-25T10:10:04;6.00;99.90
20856;DHT22;63058;49.424;8.420;2023-01-25T10:12:36;6.00;99.90
20856;DHT22;63058;49.424;8.420;2023-01-25T10:15:20;5.90;99.90
20856;DHT22;63058;49.424;8.420;2023-01-25T10:17:55;6.00;99.90
20856;DHT22;63058;49.424;8.420;2023-01-25T10:30:58;6.00;99.90
20856;DHT22;63058;49.424;8.420;2023-01-25T10:33:26;6.00;99.90
20856;DHT22;63058;49.424;8.420;2023-01-25T10:35:55;6.00;99.90
20856;DHT22;63058;49.424;8.420;2023-01-25T10:38:38;6.00;99.90
20856;DHT22;63058;49.424;8.420;2023-01-25T10:41:38;6.00;99.90
20856;DHT22;63058;49.424;8.420;2023-01-25T10:44:12;6.10;99.90
20856;DHT22;63058;49.424;8.420;2023-01-25T10:46:56;6.10;99.90
20856;DHT22;63058;49.424;8.420;2023-01-25T10:54:46;6.10;99.90
20856;DHT22;63058;49.424;8.420;2023-01-25T10:57:19;6.10;99.90
20856;DHT22;63058;49.424;8.420;2023-01-25T10:59:51;6.20;99.90
20856;DHT22;63058;49.424;8.420;2023-01-25T11:02:40;6.20;99.90
20856;DHT22;63058;49.424;8.420;2023-01-25T11:07:43;6.20;99.90
20856;DHT22;63058;49.424;8.420;2023-01-25T11:10:41;6.20;99.90
20856;DHT22;63058;49.424;8.420;2023-01-25T11:15:47;6.20;99.90
20856;DHT22;63058;49.424;8.420;2023-01-25T11:18:25;6.20;99.90
20856;DHT22;63058;49.424;8.420;2023-01-25T11:21:09;6.20;99.90
20856;DHT22;63058;49.424;8.420;2023-01-25T11:23:36;6.20;99.90
20856;DHT22;63058;49.424;8.420;2023-01-25T11:26:17;6.20;99.90
20856;DHT22;63058;49.424;8.420;2023-01-25T11:28:44;6.20;99.90
20856;DHT22;63058;49.424;8.420;2023-01-25T11:31:15;6.20;99.90
20856;DHT22;63058;49.424;8.420;2023-01-25T11:33:41;6.20;99.90
20856;DHT22;63058;49.424;8.420;2023-01-25T11:42:26;6.20;99.90
20856;DHT22;63058;49.424;8.420;2023-01-25T11:50:27;6.20;99.90
20856;DHT22;63058;49.424;8.420;2023-01-25T11:55:58;6.20;99.90
20856;DHT22;63058;49.424;8.420;2023-01-25T12:09:02;6.30;99.90
20856;DHT22;63058;49.424;8.420;2023-01-25T12:11:53;6.30;99.90
20856;DHT22;63058;49.424;8.420;2023-01-25T12:28:23;6.30;99.90
20856;DHT22;63058;49.424;8.420;2023-01-25T12:31:04;6.30;99.90
20856;DHT22;63058;49.424;8.420;2023-01-25T12:33:39;6.40;99.90
20856;DHT22;63058;49.424;8.420;2023-01-25T12:36:16;6.40;99.90
20856;DHT22;63058;49.424;8.420;2023-01-25T12:39:04;6.30;99.90
20856;DHT22;63058;49.424;8.420;2023-01-25T12:41:45;6.30;99.90
20856;DHT22;63058;49.424;8.420;2023-01-25T12:44:18;6.40;99.90
20856;DHT22;63058;49.424;8.420;2023-01-25T12:49:50;6.40;99.90
20856;DHT22;63058;49.424;8.420;2023-01-25T12:52:23;6.40;99.90
20856;DHT22;63058;49.424;8.420;2023-01-25T12:54:52;6.40;99.90
20856;DHT22;63058;49.424;8.420;2023-01-25T13:00:21;6.40;99.90
20856;DHT22;63058;49.424;8.420;2023-01-25T13:09:00;6.40;99.90
20856;DHT22;63058;49.424;8.420;2023-01-25T13:11:40;6.40;99.90
20856;DHT22;63058;49.424;8.420;2023-01-25T13:16:49;6.40;99.90
20856;DHT22;63058;49.424;8.420;2023-01-25T13:21:58;6.40;99.90
20856;DHT22;63058;49.424;8.420;2023-01-25T13:24:31;6.40;99.90
20856;DHT22;63058;49.424;8.420;2023-01-25T13:27:00;6.40;99.90
20856;DHT22;63058;49.424;8.420;2023-01-25T13:32:11;6.40;99.90
20856;DHT22;63058;49.424;8.420;2023-01-25T13:44:44;6.30;99.90
20856;DHT22;63058;49.424;8.420;2023-01-25T13:47:14;6.30;99.90
20856;DHT22;63058;49.424;8.420;2023-01-25T13:52:21;6.30;99.90
20856;DHT22;63058;49.424;8.420;2023-01-25T13:54:48;6.20;99.90
20856;DHT22;63058;49.424;8.420;2023-01-25T13:57:26;6.20;99.90
20856;DHT22;63058;49.424;8.420;2023-01-25T14:00:14;6.20;99.90
20856;DHT22;63058;49.424;8.420;2023-01-25T14:02:41;6.20;99.90
20856;DHT22;63058;49.424;8.420;2023-01-25T14:05:21;6.20;99.90
20856;DHT22;63058;49.424;8.420;2023-01-25T14:07:51;6.20;99.90
20856;DHT22;63058;49.424;8.420;2023-01-25T14:10:20;6.20;99.90
20856;DHT22;63058;49.424;8.420;2023-01-25T14:12:50;6.20;99.90
20856;DHT22;63058;49.424;8.420;2023-01-25T14:17:42;6.20;99.90
20856;DHT22;63058;49.424;8.420;2023-01-25T14:20:19;6.20;99.90
20856;DHT22;63058;49.424;8.420;2023-01-25T14:22:49;6.10;99.90
20856;DHT22;63058;49.424;8.420;2023-01-25T14:25:19;6.10;99.90
20856;DHT22;63058;49.424;8.420;2023-01-25T14:28:02;6.10;99.90
20856;DHT22;63058;49.424;8.420;2023-01-25T14:30:34;6.00;99.90
20856;DHT22;63058;49.424;8.420;2023-01-25T14:33:21;6.00;99.90
20856;DHT22;63058;49.424;8.420;2023-01-25T14:35:53;6.00;99.90
20856;DHT22;63058;49.424;8.420;2023-01-25T14:38:38;6.00;99.90
20856;DHT22;63058;49.424;8.420;2023-01-25T14:43:49;5.90;99.90
20856;DHT22;63058;49.424;8.420;2023-01-25T14:46:34;5.90;99.90
20856;DHT22;63058;49.424;8.420;2023-01-25T14:49:18;5.90;99.90
20856;DHT22;63058;49.424;8.420;2023-01-25T14:54:24;5.90;99.90
20856;DHT22;63058;49.424;8.420;2023-01-25T14:56:56;5.80;99.90
20856;DHT22;63058;49.424;8.420;2023-01-25T14:59:40;5.90;99.90
20856;DHT22;63058;49.424;8.420;2023-01-25T15:04:59;5.80;99.90
20856;DHT22;63058;49.424;8.420;2023-01-25T15:07:52;5.80;99.90
20856;DHT22;63058;49.424;8.420;2023-01-25T15:10:22;5.80;99.90
20856;DHT22;63058;49.424;8.420;2023-01-25T15:13:00;5.80;99.90
20856;DHT22;63058;49.424;8.420;2023-01-25T15:15:31;5.80;99.90
20856;DHT22;63058;49.424;8.420;2023-01-25T15:17:57;5.80;99.90
20856;DHT22;63058;49.424;8.420;2023-01-25T15:20:40;5.70;99.90
20856;DHT22;63058;49.424;8.420;2023-01-25T15:23:32;5.80;99.90
20856;DHT22;63058;49.424;8.420;2023-01-25T15:25:59;5.70;99.90
20856;DHT22;63058;49.424;8.420;2023-01-25T15:28:29;5.70;99.90
20856;DHT22;63058;49.424;8.420;2023-01-25T15:30:58;5.70;99.90
20856;DHT22;63058;49.424;8.420;2023-01-25T15:33:26;5.60;99.90
20856;DHT22;63058;49.424;8.420;2023-01-25T15:35:53;5.70;99.90
20856;DHT22;63058;49.424;8.420;2023-01-25T15:38:20;5.60;99.90
20856;DHT22;63058;49.424;8.420;2023-01-25T15:40:46;5.60;99.90
20856;DHT22;63058;49.424;8.420;2023-01-25T15:43:16;5.60;99.90
20856;DHT22;63058;49.424;8.420;2023-01-25T15:45:47;5.60;99.90
20856;DHT22;63058;49.424;8.420;2023-01-25T15:48:48;5.60;99.90
20856;DHT22;63058;49.424;8.420;2023-01-25T15:51:07;5.50;99.90
20856;DHT22;63058;49.424;8.420;2023-01-25T15:53:33;5.50;99.90
20856;DHT22;63058;49.424;8.420;2023-01-25T15:56:01;5.50;99.90
20856;DHT22;63058;49.424;8.420;2023-01-25T15:58:33;5.50;99.90
20856;DHT22;63058;49.424;8.420;2023-01-25T16:00:59;5.50;99.90
20856;DHT22;63058;49.424;8.420;2023-01-25T16:03:26;5.60;99.90
20856;DHT22;63058;49.424;8.420;2023-01-25T16:05:56;5.50;99.90
20856;DHT22;63058;49.424;8.420;2023-01-25T16:08:22;5.50;99.90
20856;DHT22;63058;49.424;8.420;2023-01-25T16:10:48;5.50;99.90
20856;DHT22;63058;49.424;8.420;2023-01-25T16:13:14;5.50;99.90
20856;DHT22;63058;49.424;8.420;2023-01-25T16:15:39;5.40;99.90
20856;DHT22;63058;49.424;8.420;2023-01-25T16:18:13;5.50;99.90
20856;DHT22;63058;49.424;8.420;2023-01-25T16:20:39;5.40;99.90
20856;DHT22;63058;49.424;8.420;2023-01-25T16:23:05;5.50;99.90
20856;DHT22;63058;49.424;8.420;2023-01-25T16:25:32;5.40;99.90
20856;DHT22;63058;49.424;8.420;2023-01-25T16:27:58;5.50;99.90
20856;DHT22;63058;49.424;8.420;2023-01-25T16:30:24;5.40;99.90
20856;DHT22;63058;49.424;8.420;2023-01-25T16:32:52;5.40;99.90
20856;DHT22;63058;49.424;8.420;2023-01-25T16:35:19;5.40;99.90
20856;DHT22;63058;49.424;8.420;2023-01-25T16:37:45;5.40;99.90
20856;DHT22;63058;49.424;8.420;2023-01-25T16:40:27;5.40;99.90
20856;DHT22;63058;49.424;8.420;2023-01-25T16:42:54;5.40;99.90
20856;DHT22;63058;49.424;8.420;2023-01-25T16:45:21;5.40;99.90
20856;DHT22;63058;49.424;8.420;2023-01-25T16:47:49;5.40;99.90
20856;DHT22;63058;49.424;8.420;2023-01-25T16:50:20;5.40;99.90
20856;DHT22;63058;49.424;8.420;2023-01-25T16:52:46;5.40;99.90
20856;DHT22;63058;49.424;8.420;2023-01-25T16:55:16;5.50;99.90
20856;DHT22;63058;49.424;8.420;2023-01-25T16:57:43;5.40;99.90
20856;DHT22;63058;49.424;8.420;2023-01-25T17:00:11;5.40;99.90
20856;DHT22;63058;49.424;8.420;2023-01-25T17:02:38;5.40;99.90
20856;DHT22;63058;49.424;8.420;2023-01-25T17:05:05;5.40;99.90
20856;DHT22;63058;49.424;8.420;2023-01-25T17:07:32;5.40;99.90
20856;DHT22;63058;49.424;8.420;2023-01-25T17:09:57;5.30;99.90
20856;DHT22;63058;49.424;8.420;2023-01-25T17:12:23;5.30;99.90
20856;DHT22;63058;49.424;8.420;2023-01-25T17:14:49;5.30;99.90
20856;DHT22;63058;49.424;8.420;2023-01-25T17:17:15;5.30;99.90
20856;DHT22;63058;49.424;8.420;2023-01-25T17:19:40;5.30;99.90
20856;DHT22;63058;49.424;8.420;2023-01-25T17:22:06;5.30;99.90
20856;DHT22;63058;49.424;8.420;2023-01-25T17:24:32;5.30;99.90
20856;DHT22;63058;49.424;8.420;2023-01-25T17:27:00;5.30;99.90
20856;DHT22;63058;49.424;8.420;2023-01-25T17:29:26;5.30;99.90
20856;DHT22;63058;49.424;8.420;2023-01-25T17:31:54;5.30;99.90
20856;DHT22;63058;49.424;8.420;2023-01-25T17:34:20;5.20;99.90
20856;DHT22;63058;49.424;8.420;2023-01-25T17:36:47;5.20;99.90
20856;DHT22;63058;49.424;8.420;2023-01-25T17:39:15;5.20;99.90
20856;DHT22;63058;49.424;8.420;2023-01-25T17:41:45;5.20;99.90
20856;DHT22;63058;49.424;8.420;2023-01-25T17:44:12;5.20;99.90
20856;DHT22;63058;49.424;8.420;2023-01-25T17:46:38;5.20;99.90
20856;DHT22;63058;49.424;8.420;2023-01-25T17:49:06;5.20;99.90
20856;DHT22;63058;49.424;8.420;2023-01-25T17:51:33;5.20;99.90
20856;DHT22;63058;49.424;8.420;2023-01-25T17:54:01;5.20;99.90
20856;DHT22;63058;49.424;8.420;2023-01-25T17:56:27;5.20;99.90
20856;DHT22;63058;49.424;8.420;2023-01-25T17:58:53;5.20;99.90
20856;DHT22;63058;49.424;8.420;2023-01-25T18:01:21;5.20;99.90
20856;DHT22;63058;49.424;8.420;2023-01-25T18:03:48;5.20;99.90
20856;DHT22;63058;49.424;8.420;2023-01-25T18:06:17;5.20;99.90